sensor_id;sensor_type;location;lat;lon;timestamp;P1;durP1;ratioP1;P2;durP2;ratioP2
16878;SDS011;8556;52.218;9.884;2022-10-04T00:00:50;7.97;;;2.80;;
16878;SDS011;8556;52.218;9.884;2022-10-04T00:03:34;6.57;;;2.97;;
16878;SDS011;8556;52.218;9.884;2022-10-04T00:06:05;5.70;;;2.87;;
16878;SDS011;8556;52.218;9.884;2022-10-04T00:08:41;6.00;;;2.30;;
16878;SDS011;8556;52.218;9.884;2022-10-04T00:11:13;3.20;;;2.27;;
16878;SDS011;8556;52.218;9.884;2022-10-04T00:13:45;6.70;;;2.63;;
16878;SDS011;8556;52.218;9.884;2022-10-04T00:16:21;8.77;;;3.00;;
16878;SDS011;8556;52.218;9.884;2022-10-04T00:18:59;11.10;;;2.87;;
16878;SDS011;8556;52.218;9.884;2022-10-04T00:24:28;6.73;;;2.67;;
16878;SDS011;8556;52.218;9.884;2022-10-04T00:29:47;6.63;;;2.30;;
16878;SDS011;8556;52.218;9.884;2022-10-04T00:32:24;3.63;;;2.30;;
16878;SDS011;8556;52.218;9.884;2022-10-04T00:34:55;12.97;;;2.80;;
16878;SDS011;8556;52.218;9.884;2022-10-04T00:37:23;5.93;;;2.80;;
16878;SDS011;8556;52.218;9.884;2022-10-04T00:39:55;8.53;;;3.30;;
16878;SDS011;8556;52.218;9.884;2022-10-04T00:42:40;7.60;;;2.57;;
16878;SDS011;8556;52.218;9.884;2022-10-04T00:51:01;9.50;;;2.27;;
16878;SDS011;8556;52.218;9.884;2022-10-04T00:53:38;5.13;;;2.40;;
16878;SDS011;8556;52.218;9.884;2022-10-04T00:56:12;8.33;;;3.00;;
16878;SDS011;8556;52.218;9.884;2022-10-04T00:58:45;7.50;;;2.10;;
16878;SDS011;8556;52.218;9.884;2022-10-04T01:01:28;4.13;;;1.97;;
16878;SDS011;8556;52.218;9.884;2022-10-04T01:04:01;4.40;;;2.40;;
16878;SDS011;8556;52.218;9.884;2022-10-04T01:06:31;5.57;;;2.30;;
16878;SDS011;8556;52.218;9.884;2022-10-04T01:09:02;9.70;;;2.50;;
16878;SDS011;8556;52.218;9.884;2022-10-04T01:11:33;8.87;;;2.20;;
16878;SDS011;8556;52.218;9.884;2022-10-04T01:14:03;9.90;;;2.20;;
16878;SDS011;8556;52.218;9.884;2022-10-04T01:16:34;4.03;;;2.17;;
16878;SDS011;8556;52.218;9.884;2022-10-04T01:21:57;5.10;;;1.87;;
16878;SDS011;8556;52.218;9.884;2022-10-04T01:24:35;5.13;;;2.00;;
16878;SDS011;8556;52.218;9.884;2022-10-04T01:27:03;7.03;;;2.50;;
16878;SDS011;8556;52.218;9.884;2022-10-04T01:29:52;4.70;;;1.90;;
16878;SDS011;8556;52.218;9.884;2022-10-04T01:32:19;5.87;;;2.00;;
16878;SDS011;8556;52.218;9.884;2022-10-04T01:34:47;5.50;;;1.70;;
16878;SDS011;8556;52.218;9.884;2022-10-04T01:37:14;5.03;;;1.77;;
16878;SDS011;8556;52.218;9.884;2022-10-04T01:39:42;6.57;;;2.00;;
16878;SDS011;8556;52.218;9.884;2022-10-04T01:42:10;6.20;;;1.90;;
16878;SDS011;8556;52.218;9.884;2022-10-04T01:44:43;5.90;;;2.00;;
16878;SDS011;8556;52.218;9.884;2022-10-04T01:47:16;6.50;;;2.00;;
16878;SDS011;8556;52.218;9.884;2022-10-04T01:49:49;8.20;;;2.10;;
16878;SDS011;8556;52.218;9.884;2022-10-04T01:52:22;6.73;;;1.93;;
16878;SDS011;8556;52.218;9.884;2022-10-04T01:54:59;4.00;;;2.00;;
16878;SDS011;8556;52.218;9.884;2022-10-04T01:57:30;6.10;;;2.10;;
16878;SDS011;8556;52.218;9.884;2022-10-04T02:00:03;4.00;;;1.80;;
16878;SDS011;8556;52.218;9.884;2022-10-04T02:02:33;5.80;;;2.03;;
16878;SDS011;8556;52.218;9.884;2022-10-04T02:05:04;8.83;;;2.00;;
16878;SDS011;8556;52.218;9.884;2022-10-04T02:07:34;3.90;;;2.10;;
16878;SDS011;8556;52.218;9.884;2022-10-04T02:10:06;4.60;;;1.87;;
16878;SDS011;8556;52.218;9.884;2022-10-04T02:12:35;4.13;;;1.90;;
16878;SDS011;8556;52.218;9.884;2022-10-04T02:15:09;8.37;;;2.77;;
16878;SDS011;8556;52.218;9.884;2022-10-04T02:17:36;4.73;;;1.90;;
16878;SDS011;8556;52.218;9.884;2022-10-04T02:20:08;4.23;;;1.60;;
16878;SDS011;8556;52.218;9.884;2022-10-04T02:22:38;6.83;;;1.83;;
16878;SDS011;8556;52.218;9.884;2022-10-04T02:25:08;10.30;;;2.13;;
16878;SDS011;8556;52.218;9.884;2022-10-04T02:27:36;5.57;;;2.03;;
16878;SDS011;8556;52.218;9.884;2022-10-04T02:30:04;6.10;;;1.60;;
16878;SDS011;8556;52.218;9.884;2022-10-04T02:32:33;6.33;;;2.10;;
16878;SDS011;8556;52.218;9.884;2022-10-04T02:35:19;6.90;;;1.80;;
16878;SDS011;8556;52.218;9.884;2022-10-04T02:37:46;7.10;;;1.80;;
16878;SDS011;8556;52.218;9.884;2022-10-04T02:40:18;6.47;;;1.83;;
16878;SDS011;8556;52.218;9.884;2022-10-04T02:42:52;6.73;;;2.03;;
16878;SDS011;8556;52.218;9.884;2022-10-04T02:45:26;4.33;;;1.70;;
16878;SDS011;8556;52.218;9.884;2022-10-04T02:47:59;3.37;;;1.83;;
16878;SDS011;8556;52.218;9.884;2022-10-04T02:50:38;5.70;;;1.87;;
16878;SDS011;8556;52.218;9.884;2022-10-04T02:53:15;8.67;;;1.80;;
16878;SDS011;8556;52.218;9.884;2022-10-04T02:55:47;3.60;;;1.57;;
16878;SDS011;8556;52.218;9.884;2022-10-04T02:58:16;4.37;;;2.00;;
16878;SDS011;8556;52.218;9.884;2022-10-04T03:00:47;6.17;;;1.80;;
16878;SDS011;8556;52.218;9.884;2022-10-04T03:03:18;4.87;;;2.00;;
16878;SDS011;8556;52.218;9.884;2022-10-04T03:05:52;4.40;;;1.90;;
16878;SDS011;8556;52.218;9.884;2022-10-04T03:08:30;7.23;;;1.83;;
16878;SDS011;8556;52.218;9.884;2022-10-04T03:11:02;8.43;;;2.13;;
16878;SDS011;8556;52.218;9.884;2022-10-04T03:13:30;5.13;;;1.90;;
16878;SDS011;8556;52.218;9.884;2022-10-04T03:15:58;7.43;;;2.47;;
16878;SDS011;8556;52.218;9.884;2022-10-04T03:18:25;9.70;;;2.87;;
16878;SDS011;8556;52.218;9.884;2022-10-04T03:20:53;4.77;;;2.03;;
16878;SDS011;8556;52.218;9.884;2022-10-04T03:23:20;9.60;;;2.00;;
16878;SDS011;8556;52.218;9.884;2022-10-04T03:25:49;3.63;;;1.73;;
16878;SDS011;8556;52.218;9.884;2022-10-04T03:28:19;5.20;;;2.07;;
16878;SDS011;8556;52.218;9.884;2022-10-04T03:30:46;4.60;;;1.80;;
16878;SDS011;8556;52.218;9.884;2022-10-04T03:33:15;11.43;;;4.43;;
16878;SDS011;8556;52.218;9.884;2022-10-04T03:35:48;9.37;;;5.43;;
16878;SDS011;8556;52.218;9.884;2022-10-04T03:38:18;7.50;;;1.90;;
16878;SDS011;8556;52.218;9.884;2022-10-04T03:40:48;6.23;;;2.13;;
16878;SDS011;8556;52.218;9.884;2022-10-04T03:43:17;8.30;;;1.90;;
16878;SDS011;8556;52.218;9.884;2022-10-04T03:45:50;2.90;;;2.47;;
16878;SDS011;8556;52.218;9.884;2022-10-04T03:48:21;6.67;;;1.90;;
16878;SDS011;8556;52.218;9.884;2022-10-04T03:50:55;14.47;;;2.00;;
16878;SDS011;8556;52.218;9.884;2022-10-04T03:53:27;6.53;;;2.13;;
16878;SDS011;8556;52.218;9.884;2022-10-04T03:55:56;9.90;;;2.93;;
16878;SDS011;8556;52.218;9.884;2022-10-04T03:58:25;8.57;;;3.07;;
16878;SDS011;8556;52.218;9.884;2022-10-04T04:00:59;6.63;;;2.17;;
16878;SDS011;8556;52.218;9.884;2022-10-04T04:03:37;5.77;;;2.40;;
16878;SDS011;8556;52.218;9.884;2022-10-04T04:06:15;4.83;;;2.20;;
16878;SDS011;8556;52.218;9.884;2022-10-04T04:08:44;5.50;;;2.57;;
16878;SDS011;8556;52.218;9.884;2022-10-04T04:11:15;6.37;;;2.27;;
16878;SDS011;8556;52.218;9.884;2022-10-04T04:13:49;5.27;;;2.20;;
16878;SDS011;8556;52.218;9.884;2022-10-04T04:16:21;6.60;;;2.30;;
16878;SDS011;8556;52.218;9.884;2022-10-04T04:18:51;6.07;;;2.10;;
16878;SDS011;8556;52.218;9.884;2022-10-04T04:21:20;9.10;;;2.50;;
16878;SDS011;8556;52.218;9.884;2022-10-04T04:23:49;3.63;;;1.80;;
16878;SDS011;8556;52.218;9.884;2022-10-04T04:26:22;4.13;;;1.70;;
16878;SDS011;8556;52.218;9.884;2022-10-04T04:28:54;4.30;;;1.70;;
16878;SDS011;8556;52.218;9.884;2022-10-04T04:31:29;11.13;;;5.47;;
16878;SDS011;8556;52.218;9.884;2022-10-04T04:33:59;7.10;;;3.10;;
16878;SDS011;8556;52.218;9.884;2022-10-04T04:36:37;5.03;;;2.00;;
16878;SDS011;8556;52.218;9.884;2022-10-04T04:39:06;4.10;;;1.70;;
16878;SDS011;8556;52.218;9.884;2022-10-04T04:41:51;8.23;;;1.97;;
16878;SDS011;8556;52.218;9.884;2022-10-04T04:44:20;4.57;;;1.80;;
16878;SDS011;8556;52.218;9.884;2022-10-04T04:46:47;5.30;;;2.23;;
16878;SDS011;8556;52.218;9.884;2022-10-04T04:49:14;5.97;;;1.87;;
16878;SDS011;8556;52.218;9.884;2022-10-04T04:51:45;5.40;;;1.90;;
16878;SDS011;8556;52.218;9.884;2022-10-04T04:54:15;5.93;;;1.90;;
16878;SDS011;8556;52.218;9.884;2022-10-04T04:56:44;8.07;;;2.20;;
16878;SDS011;8556;52.218;9.884;2022-10-04T04:59:14;3.30;;;1.60;;
16878;SDS011;8556;52.218;9.884;2022-10-04T05:01:43;4.87;;;1.93;;
16878;SDS011;8556;52.218;9.884;2022-10-04T05:04:16;4.10;;;2.10;;
16878;SDS011;8556;52.218;9.884;2022-10-04T05:06:45;7.37;;;2.17;;
16878;SDS011;8556;52.218;9.884;2022-10-04T05:09:23;3.57;;;1.87;;
16878;SDS011;8556;52.218;9.884;2022-10-04T05:11:51;7.87;;;2.07;;
16878;SDS011;8556;52.218;9.884;2022-10-04T05:14:21;6.43;;;2.40;;
16878;SDS011;8556;52.218;9.884;2022-10-04T05:16:50;3.60;;;1.80;;
16878;SDS011;8556;52.218;9.884;2022-10-04T05:19:20;10.10;;;2.10;;
16878;SDS011;8556;52.218;9.884;2022-10-04T05:21:50;4.97;;;2.00;;
16878;SDS011;8556;52.218;9.884;2022-10-04T05:24:20;4.23;;;1.93;;
16878;SDS011;8556;52.218;9.884;2022-10-04T05:26:52;4.17;;;2.07;;
16878;SDS011;8556;52.218;9.884;2022-10-04T05:29:21;6.63;;;2.17;;
16878;SDS011;8556;52.218;9.884;2022-10-04T05:31:54;9.30;;;2.93;;
16878;SDS011;8556;52.218;9.884;2022-10-04T05:34:30;7.03;;;2.40;;
16878;SDS011;8556;52.218;9.884;2022-10-04T05:37:04;7.67;;;2.23;;
16878;SDS011;8556;52.218;9.884;2022-10-04T05:39:56;6.50;;;2.40;;
16878;SDS011;8556;52.218;9.884;2022-10-04T05:42:35;4.57;;;2.27;;
16878;SDS011;8556;52.218;9.884;2022-10-04T05:45:10;6.13;;;1.80;;
16878;SDS011;8556;52.218;9.884;2022-10-04T05:47:41;4.00;;;2.10;;
16878;SDS011;8556;52.218;9.884;2022-10-04T05:50:13;5.33;;;2.07;;
16878;SDS011;8556;52.218;9.884;2022-10-04T05:52:41;4.97;;;2.33;;
16878;SDS011;8556;52.218;9.884;2022-10-04T05:55:14;8.20;;;2.07;;
16878;SDS011;8556;52.218;9.884;2022-10-04T05:57:55;9.57;;;2.30;;
16878;SDS011;8556;52.218;9.884;2022-10-04T06:00:44;8.00;;;2.60;;
16878;SDS011;8556;52.218;9.884;2022-10-04T06:03:25;6.37;;;2.00;;
16878;SDS011;8556;52.218;9.884;2022-10-04T06:06:01;6.03;;;2.10;;
16878;SDS011;8556;52.218;9.884;2022-10-04T06:08:40;3.63;;;1.73;;
16878;SDS011;8556;52.218;9.884;2022-10-04T06:11:22;3.87;;;2.17;;
16878;SDS011;8556;52.218;9.884;2022-10-04T06:19:48;7.13;;;2.13;;
16878;SDS011;8556;52.218;9.884;2022-10-04T06:22:41;5.40;;;2.40;;
16878;SDS011;8556;52.218;9.884;2022-10-04T06:25:11;3.23;;;2.13;;
16878;SDS011;8556;52.218;9.884;2022-10-04T06:27:42;7.63;;;2.40;;
16878;SDS011;8556;52.218;9.884;2022-10-04T06:30:14;8.10;;;2.50;;
16878;SDS011;8556;52.218;9.884;2022-10-04T06:32:57;8.37;;;2.50;;
16878;SDS011;8556;52.218;9.884;2022-10-04T06:35:46;8.07;;;2.90;;
16878;SDS011;8556;52.218;9.884;2022-10-04T06:44:21;8.53;;;2.80;;
16878;SDS011;8556;52.218;9.884;2022-10-04T06:47:03;6.73;;;2.60;;
16878;SDS011;8556;52.218;9.884;2022-10-04T06:49:47;7.97;;;2.80;;
16878;SDS011;8556;52.218;9.884;2022-10-04T06:52:29;5.77;;;3.07;;
16878;SDS011;8556;52.218;9.884;2022-10-04T06:55:26;6.20;;;3.07;;
16878;SDS011;8556;52.218;9.884;2022-10-04T06:58:11;9.53;;;3.10;;
16878;SDS011;8556;52.218;9.884;2022-10-04T07:00:57;3.73;;;2.70;;
16878;SDS011;8556;52.218;9.884;2022-10-04T07:03:30;9.13;;;3.03;;
16878;SDS011;8556;52.218;9.884;2022-10-04T07:06:04;7.67;;;2.67;;
16878;SDS011;8556;52.218;9.884;2022-10-04T07:08:36;12.20;;;2.77;;
16878;SDS011;8556;52.218;9.884;2022-10-04T07:11:10;11.97;;;3.53;;
16878;SDS011;8556;52.218;9.884;2022-10-04T07:13:42;6.77;;;3.00;;
16878;SDS011;8556;52.218;9.884;2022-10-04T07:16:22;4.57;;;3.33;;
16878;SDS011;8556;52.218;9.884;2022-10-04T07:18:56;9.33;;;3.40;;
16878;SDS011;8556;52.218;9.884;2022-10-04T07:21:32;6.20;;;2.50;;
16878;SDS011;8556;52.218;9.884;2022-10-04T07:24:05;3.30;;;2.37;;
16878;SDS011;8556;52.218;9.884;2022-10-04T07:26:37;7.60;;;3.10;;
16878;SDS011;8556;52.218;9.884;2022-10-04T07:29:11;10.07;;;3.47;;
16878;SDS011;8556;52.218;9.884;2022-10-04T07:31:47;5.37;;;2.80;;
16878;SDS011;8556;52.218;9.884;2022-10-04T07:34:20;7.13;;;3.30;;
16878;SDS011;8556;52.218;9.884;2022-10-04T07:36:51;7.00;;;3.87;;
16878;SDS011;8556;52.218;9.884;2022-10-04T07:39:22;7.80;;;3.30;;
16878;SDS011;8556;52.218;9.884;2022-10-04T07:41:54;9.87;;;3.40;;
16878;SDS011;8556;52.218;9.884;2022-10-04T07:44:25;8.03;;;3.13;;
16878;SDS011;8556;52.218;9.884;2022-10-04T07:46:59;12.37;;;3.70;;
16878;SDS011;8556;52.218;9.884;2022-10-04T07:49:35;8.10;;;3.37;;
16878;SDS011;8556;52.218;9.884;2022-10-04T07:52:06;6.13;;;3.13;;
16878;SDS011;8556;52.218;9.884;2022-10-04T07:54:53;9.83;;;3.10;;
16878;SDS011;8556;52.218;9.884;2022-10-04T07:57:32;11.17;;;3.57;;
16878;SDS011;8556;52.218;9.884;2022-10-04T08:00:10;5.83;;;3.40;;
16878;SDS011;8556;52.218;9.884;2022-10-04T08:02:42;8.90;;;3.00;;
16878;SDS011;8556;52.218;9.884;2022-10-04T08:05:21;6.17;;;3.13;;
16878;SDS011;8556;52.218;9.884;2022-10-04T08:08:01;7.10;;;3.40;;
16878;SDS011;8556;52.218;9.884;2022-10-04T08:10:49;9.00;;;3.37;;
16878;SDS011;8556;52.218;9.884;2022-10-04T08:13:22;6.23;;;2.90;;
16878;SDS011;8556;52.218;9.884;2022-10-04T08:15:58;4.90;;;2.93;;
16878;SDS011;8556;52.218;9.884;2022-10-04T08:18:33;5.93;;;3.00;;
16878;SDS011;8556;52.218;9.884;2022-10-04T08:21:13;4.10;;;3.00;;
16878;SDS011;8556;52.218;9.884;2022-10-04T08:23:54;8.40;;;3.27;;
16878;SDS011;8556;52.218;9.884;2022-10-04T08:29:25;8.70;;;3.27;;
16878;SDS011;8556;52.218;9.884;2022-10-04T08:32:20;4.13;;;2.63;;
16878;SDS011;8556;52.218;9.884;2022-10-04T08:35:00;6.57;;;2.70;;
16878;SDS011;8556;52.218;9.884;2022-10-04T08:37:57;7.00;;;3.20;;
16878;SDS011;8556;52.218;9.884;2022-10-04T08:41:18;5.60;;;3.20;;
16878;SDS011;8556;52.218;9.884;2022-10-04T08:47:36;9.43;;;3.50;;
16878;SDS011;8556;52.218;9.884;2022-10-04T08:50:36;6.10;;;3.13;;
16878;SDS011;8556;52.218;9.884;2022-10-04T08:53:35;11.90;;;3.63;;
16878;SDS011;8556;52.218;9.884;2022-10-04T08:56:25;10.25;;;3.20;;
16878;SDS011;8556;52.218;9.884;2022-10-04T08:59:13;5.28;;;2.72;;
16878;SDS011;8556;52.218;9.884;2022-10-04T09:08:04;6.23;;;2.80;;
16878;SDS011;8556;52.218;9.884;2022-10-04T09:10:53;7.13;;;3.50;;
16878;SDS011;8556;52.218;9.884;2022-10-04T09:13:35;10.00;;;2.83;;
16878;SDS011;8556;52.218;9.884;2022-10-04T09:16:13;5.95;;;2.58;;
16878;SDS011;8556;52.218;9.884;2022-10-04T09:18:47;8.73;;;2.97;;
16878;SDS011;8556;52.218;9.884;2022-10-04T09:21:27;7.22;;;2.65;;
16878;SDS011;8556;52.218;9.884;2022-10-04T09:24:17;6.07;;;2.58;;
16878;SDS011;8556;52.218;9.884;2022-10-04T09:27:04;6.90;;;2.88;;
16878;SDS011;8556;52.218;9.884;2022-10-04T09:29:42;5.85;;;2.67;;
16878;SDS011;8556;52.218;9.884;2022-10-04T09:32:37;5.97;;;2.60;;
16878;SDS011;8556;52.218;9.884;2022-10-04T09:38:26;7.07;;;2.75;;
16878;SDS011;8556;52.218;9.884;2022-10-04T09:41:20;8.52;;;2.92;;
16878;SDS011;8556;52.218;9.884;2022-10-04T09:44:34;6.07;;;2.47;;
16878;SDS011;8556;52.218;9.884;2022-10-04T09:50:20;6.00;;;2.70;;
16878;SDS011;8556;52.218;9.884;2022-10-04T09:53:35;9.48;;;2.83;;
16878;SDS011;8556;52.218;9.884;2022-10-04T09:56:19;5.30;;;2.63;;
16878;SDS011;8556;52.218;9.884;2022-10-04T10:05:13;5.72;;;2.45;;
16878;SDS011;8556;52.218;9.884;2022-10-04T10:07:57;5.97;;;2.65;;
16878;SDS011;8556;52.218;9.884;2022-10-04T10:10:36;4.70;;;2.20;;
16878;SDS011;8556;52.218;9.884;2022-10-04T10:16:40;5.07;;;2.67;;
16878;SDS011;8556;52.218;9.884;2022-10-04T10:19:23;4.65;;;2.03;;
16878;SDS011;8556;52.218;9.884;2022-10-04T10:22:15;4.53;;;2.40;;
16878;SDS011;8556;52.218;9.884;2022-10-04T10:28:05;6.47;;;2.53;;
16878;SDS011;8556;52.218;9.884;2022-10-04T10:30:47;7.15;;;2.42;;
16878;SDS011;8556;52.218;9.884;2022-10-04T10:33:38;8.77;;;3.10;;
16878;SDS011;8556;52.218;9.884;2022-10-04T10:36:23;4.50;;;2.00;;
16878;SDS011;8556;52.218;9.884;2022-10-04T10:39:00;8.68;;;2.90;;
16878;SDS011;8556;52.218;9.884;2022-10-04T10:41:46;6.35;;;2.33;;
16878;SDS011;8556;52.218;9.884;2022-10-04T10:44:35;5.07;;;2.53;;
16878;SDS011;8556;52.218;9.884;2022-10-04T10:47:24;3.58;;;2.20;;
16878;SDS011;8556;52.218;9.884;2022-10-04T10:50:13;4.60;;;2.60;;
16878;SDS011;8556;52.218;9.884;2022-10-04T10:52:58;4.78;;;2.33;;
16878;SDS011;8556;52.218;9.884;2022-10-04T11:02:24;7.85;;;2.58;;
16878;SDS011;8556;52.218;9.884;2022-10-04T11:11:48;4.32;;;2.30;;
16878;SDS011;8556;52.218;9.884;2022-10-04T11:14:44;3.25;;;2.42;;
16878;SDS011;8556;52.218;9.884;2022-10-04T11:17:36;8.75;;;2.30;;
16878;SDS011;8556;52.218;9.884;2022-10-04T11:26:41;5.60;;;2.40;;
16878;SDS011;8556;52.218;9.884;2022-10-04T11:38:45;4.70;;;2.03;;
16878;SDS011;8556;52.218;9.884;2022-10-04T11:41:33;4.88;;;2.08;;
16878;SDS011;8556;52.218;9.884;2022-10-04T11:44:22;6.75;;;2.40;;
16878;SDS011;8556;52.218;9.884;2022-10-04T11:47:17;8.73;;;2.60;;
16878;SDS011;8556;52.218;9.884;2022-10-04T11:50:02;5.22;;;2.40;;
16878;SDS011;8556;52.218;9.884;2022-10-04T11:53:09;7.95;;;2.78;;
16878;SDS011;8556;52.218;9.884;2022-10-04T11:55:55;5.53;;;2.50;;
16878;SDS011;8556;52.218;9.884;2022-10-04T11:58:48;3.13;;;2.10;;
16878;SDS011;8556;52.218;9.884;2022-10-04T12:01:38;8.23;;;2.63;;
16878;SDS011;8556;52.218;9.884;2022-10-04T12:04:46;6.82;;;2.67;;
16878;SDS011;8556;52.218;9.884;2022-10-04T12:07:32;5.95;;;2.60;;
16878;SDS011;8556;52.218;9.884;2022-10-04T12:10:17;3.92;;;2.13;;
16878;SDS011;8556;52.218;9.884;2022-10-04T12:16:12;9.05;;;3.70;;
16878;SDS011;8556;52.218;9.884;2022-10-04T12:19:13;5.75;;;2.33;;
16878;SDS011;8556;52.218;9.884;2022-10-04T12:22:13;6.78;;;2.55;;
16878;SDS011;8556;52.218;9.884;2022-10-04T12:24:59;3.38;;;2.42;;
16878;SDS011;8556;52.218;9.884;2022-10-04T12:30:59;3.38;;;2.90;;
16878;SDS011;8556;52.218;9.884;2022-10-04T12:33:37;4.85;;;2.45;;
16878;SDS011;8556;52.218;9.884;2022-10-04T12:36:18;7.05;;;3.25;;
16878;SDS011;8556;52.218;9.884;2022-10-04T12:39:01;4.53;;;2.72;;
16878;SDS011;8556;52.218;9.884;2022-10-04T12:41:42;4.63;;;2.70;;
16878;SDS011;8556;52.218;9.884;2022-10-04T12:44:24;4.70;;;2.75;;
16878;SDS011;8556;52.218;9.884;2022-10-04T12:49:59;6.20;;;2.63;;
16878;SDS011;8556;52.218;9.884;2022-10-04T12:52:38;4.50;;;2.33;;
16878;SDS011;8556;52.218;9.884;2022-10-04T12:55:17;4.90;;;2.90;;
16878;SDS011;8556;52.218;9.884;2022-10-04T12:57:50;6.57;;;2.90;;
16878;SDS011;8556;52.218;9.884;2022-10-04T13:00:23;6.07;;;2.90;;
16878;SDS011;8556;52.218;9.884;2022-10-04T13:03:09;3.83;;;2.45;;
16878;SDS011;8556;52.218;9.884;2022-10-04T13:05:51;4.03;;;2.50;;
16878;SDS011;8556;52.218;9.884;2022-10-04T13:11:07;7.50;;;2.42;;
16878;SDS011;8556;52.218;9.884;2022-10-04T13:13:58;5.20;;;2.55;;
16878;SDS011;8556;52.218;9.884;2022-10-04T13:16:45;5.22;;;2.40;;
16878;SDS011;8556;52.218;9.884;2022-10-04T13:19:21;3.75;;;2.50;;
16878;SDS011;8556;52.218;9.884;2022-10-04T13:22:00;5.47;;;2.60;;
16878;SDS011;8556;52.218;9.884;2022-10-04T13:24:49;4.80;;;2.40;;
16878;SDS011;8556;52.218;9.884;2022-10-04T13:27:27;4.78;;;2.72;;
16878;SDS011;8556;52.218;9.884;2022-10-04T13:30:00;6.70;;;2.85;;
16878;SDS011;8556;52.218;9.884;2022-10-04T13:32:33;4.90;;;2.92;;
16878;SDS011;8556;52.218;9.884;2022-10-04T13:35:11;3.80;;;2.50;;
16878;SDS011;8556;52.218;9.884;2022-10-04T13:37:43;4.40;;;2.63;;
16878;SDS011;8556;52.218;9.884;2022-10-04T13:40:28;5.07;;;2.60;;
16878;SDS011;8556;52.218;9.884;2022-10-04T13:43:18;6.22;;;2.90;;
16878;SDS011;8556;52.218;9.884;2022-10-04T13:46:00;3.72;;;2.65;;
16878;SDS011;8556;52.218;9.884;2022-10-04T13:48:42;4.03;;;2.55;;
16878;SDS011;8556;52.218;9.884;2022-10-04T13:51:23;6.35;;;2.95;;
16878;SDS011;8556;52.218;9.884;2022-10-04T13:54:07;7.60;;;2.80;;
16878;SDS011;8556;52.218;9.884;2022-10-04T13:57:04;6.47;;;2.80;;
16878;SDS011;8556;52.218;9.884;2022-10-04T13:59:43;7.13;;;2.80;;
16878;SDS011;8556;52.218;9.884;2022-10-04T14:02:32;3.08;;;2.45;;
16878;SDS011;8556;52.218;9.884;2022-10-04T14:05:21;4.53;;;2.65;;
16878;SDS011;8556;52.218;9.884;2022-10-04T14:11:48;3.08;;;2.40;;
16878;SDS011;8556;52.218;9.884;2022-10-04T14:17:54;5.70;;;3.08;;
16878;SDS011;8556;52.218;9.884;2022-10-04T14:23:48;4.28;;;2.88;;
16878;SDS011;8556;52.218;9.884;2022-10-04T14:26:37;5.75;;;2.90;;
16878;SDS011;8556;52.218;9.884;2022-10-04T14:29:24;14.50;;;8.60;;
16878;SDS011;8556;52.218;9.884;2022-10-04T14:32:18;4.63;;;2.78;;
16878;SDS011;8556;52.218;9.884;2022-10-04T14:35:01;7.32;;;2.72;;
16878;SDS011;8556;52.218;9.884;2022-10-04T14:37:45;4.40;;;2.97;;
16878;SDS011;8556;52.218;9.884;2022-10-04T14:40:35;5.13;;;2.70;;
16878;SDS011;8556;52.218;9.884;2022-10-04T14:43:30;5.28;;;3.10;;
16878;SDS011;8556;52.218;9.884;2022-10-04T14:46:35;3.63;;;2.70;;
16878;SDS011;8556;52.218;9.884;2022-10-04T14:49:16;7.68;;;3.10;;
16878;SDS011;8556;52.218;9.884;2022-10-04T14:51:59;6.75;;;2.78;;
16878;SDS011;8556;52.218;9.884;2022-10-04T14:54:41;5.07;;;3.13;;
16878;SDS011;8556;52.218;9.884;2022-10-04T14:57:18;4.65;;;3.00;;
16878;SDS011;8556;52.218;9.884;2022-10-04T15:00:16;5.43;;;3.33;;
16878;SDS011;8556;52.218;9.884;2022-10-04T15:08:59;8.23;;;3.35;;
16878;SDS011;8556;52.218;9.884;2022-10-04T15:11:46;5.50;;;3.08;;
16878;SDS011;8556;52.218;9.884;2022-10-04T15:14:24;7.25;;;3.22;;
16878;SDS011;8556;52.218;9.884;2022-10-04T15:17:01;7.15;;;2.72;;
16878;SDS011;8556;52.218;9.884;2022-10-04T15:19:33;5.53;;;3.22;;
16878;SDS011;8556;52.218;9.884;2022-10-04T15:22:14;7.32;;;3.20;;
16878;SDS011;8556;52.218;9.884;2022-10-04T15:24:49;5.13;;;3.42;;
16878;SDS011;8556;52.218;9.884;2022-10-04T15:30:22;4.00;;;2.95;;
16878;SDS011;8556;52.218;9.884;2022-10-04T15:32:59;5.75;;;3.28;;
16878;SDS011;8556;52.218;9.884;2022-10-04T15:35:57;6.70;;;3.30;;
16878;SDS011;8556;52.218;9.884;2022-10-04T15:38:46;7.00;;;3.53;;
16878;SDS011;8556;52.218;9.884;2022-10-04T15:41:23;7.63;;;3.42;;
16878;SDS011;8556;52.218;9.884;2022-10-04T15:44:09;4.78;;;3.00;;
16878;SDS011;8556;52.218;9.884;2022-10-04T15:46:57;3.72;;;2.65;;
16878;SDS011;8556;52.218;9.884;2022-10-04T15:49:46;5.88;;;3.05;;
16878;SDS011;8556;52.218;9.884;2022-10-04T15:52:37;4.28;;;2.92;;
16878;SDS011;8556;52.218;9.884;2022-10-04T15:55:10;6.93;;;3.55;;
16878;SDS011;8556;52.218;9.884;2022-10-04T15:58:00;4.50;;;2.70;;
16878;SDS011;8556;52.218;9.884;2022-10-04T16:00:52;6.65;;;3.72;;
16878;SDS011;8556;52.218;9.884;2022-10-04T16:03:33;5.38;;;3.35;;
16878;SDS011;8556;52.218;9.884;2022-10-04T16:06:11;6.25;;;3.05;;
16878;SDS011;8556;52.218;9.884;2022-10-04T16:09:09;7.45;;;3.17;;
16878;SDS011;8556;52.218;9.884;2022-10-04T16:11:46;7.85;;;3.97;;
16878;SDS011;8556;52.218;9.884;2022-10-04T16:14:25;4.50;;;3.40;;
16878;SDS011;8556;52.218;9.884;2022-10-04T16:17:08;9.80;;;4.35;;
16878;SDS011;8556;52.218;9.884;2022-10-04T16:20:00;6.30;;;3.50;;
16878;SDS011;8556;52.218;9.884;2022-10-04T16:25:45;4.22;;;2.78;;
16878;SDS011;8556;52.218;9.884;2022-10-04T16:28:16;5.45;;;3.30;;
16878;SDS011;8556;52.218;9.884;2022-10-04T16:33:57;6.00;;;3.05;;
16878;SDS011;8556;52.218;9.884;2022-10-04T16:36:41;7.95;;;3.30;;
16878;SDS011;8556;52.218;9.884;2022-10-04T16:39:11;5.70;;;3.50;;
16878;SDS011;8556;52.218;9.884;2022-10-04T16:42:15;6.82;;;3.40;;
16878;SDS011;8556;52.218;9.884;2022-10-04T16:44:48;9.25;;;3.60;;
16878;SDS011;8556;52.218;9.884;2022-10-04T16:47:19;7.50;;;4.07;;
16878;SDS011;8556;52.218;9.884;2022-10-04T16:49:49;7.00;;;3.33;;
16878;SDS011;8556;52.218;9.884;2022-10-04T16:52:27;5.53;;;3.75;;
16878;SDS011;8556;52.218;9.884;2022-10-04T17:01:29;6.63;;;4.43;;
16878;SDS011;8556;52.218;9.884;2022-10-04T17:04:13;8.68;;;4.10;;
16878;SDS011;8556;52.218;9.884;2022-10-04T17:06:54;9.13;;;4.30;;
16878;SDS011;8556;52.218;9.884;2022-10-04T17:09:25;7.28;;;3.97;;
16878;SDS011;8556;52.218;9.884;2022-10-04T17:12:00;6.13;;;4.65;;
16878;SDS011;8556;52.218;9.884;2022-10-04T17:17:34;6.15;;;4.10;;
16878;SDS011;8556;52.218;9.884;2022-10-04T17:20:11;7.68;;;4.25;;
16878;SDS011;8556;52.218;9.884;2022-10-04T17:22:48;10.38;;;4.70;;
16878;SDS011;8556;52.218;9.884;2022-10-04T17:25:27;7.72;;;4.70;;
16878;SDS011;8556;52.218;9.884;2022-10-04T17:28:10;10.13;;;5.07;;
16878;SDS011;8556;52.218;9.884;2022-10-04T17:30:45;8.55;;;4.90;;
16878;SDS011;8556;52.218;9.884;2022-10-04T17:33:18;8.25;;;4.65;;
16878;SDS011;8556;52.218;9.884;2022-10-04T17:39:05;7.70;;;4.20;;
16878;SDS011;8556;52.218;9.884;2022-10-04T17:41:47;6.10;;;4.63;;
16878;SDS011;8556;52.218;9.884;2022-10-04T17:44:33;8.48;;;4.60;;
16878;SDS011;8556;52.218;9.884;2022-10-04T17:47:10;7.72;;;4.93;;
16878;SDS011;8556;52.218;9.884;2022-10-04T17:49:42;9.13;;;4.95;;
16878;SDS011;8556;52.218;9.884;2022-10-04T17:52:39;8.82;;;4.63;;
16878;SDS011;8556;52.218;9.884;2022-10-04T17:55:28;9.80;;;5.55;;
16878;SDS011;8556;52.218;9.884;2022-10-04T17:58:10;10.32;;;5.53;;
16878;SDS011;8556;52.218;9.884;2022-10-04T18:00:46;10.48;;;6.15;;
16878;SDS011;8556;52.218;9.884;2022-10-04T18:03:17;13.32;;;5.43;;
16878;SDS011;8556;52.218;9.884;2022-10-04T18:05:49;8.07;;;5.30;;
16878;SDS011;8556;52.218;9.884;2022-10-04T18:08:22;10.25;;;5.50;;
16878;SDS011;8556;52.218;9.884;2022-10-04T18:10:57;7.90;;;5.10;;
16878;SDS011;8556;52.218;9.884;2022-10-04T18:13:30;6.90;;;4.38;;
16878;SDS011;8556;52.218;9.884;2022-10-04T18:16:03;6.82;;;4.03;;
16878;SDS011;8556;52.218;9.884;2022-10-04T18:18:37;8.52;;;3.80;;
16878;SDS011;8556;52.218;9.884;2022-10-04T18:21:06;6.10;;;4.07;;
16878;SDS011;8556;52.218;9.884;2022-10-04T18:23:52;7.38;;;3.70;;
16878;SDS011;8556;52.218;9.884;2022-10-04T18:26:21;6.30;;;3.30;;